sensor_id;sensor_type;location;lat;lon;timestamp;P1;durP1;ratioP1;P2;durP2;ratioP2
25707;SDS011;13567;61.652;17.100;2022-07-29T00:01:02;2.08;;;0.90;;
25707;SDS011;13567;61.652;17.100;2022-07-29T00:03:29;4.70;;;1.15;;
25707;SDS011;13567;61.652;17.100;2022-07-29T00:05:56;3.90;;;0.80;;
25707;SDS011;13567;61.652;17.100;2022-07-29T00:08:23;1.65;;;0.73;;
25707;SDS011;13567;61.652;17.100;2022-07-29T00:10:50;0.82;;;0.50;;
25707;SDS011;13567;61.652;17.100;2022-07-29T00:13:17;1.38;;;0.70;;
25707;SDS011;13567;61.652;17.100;2022-07-29T00:15:58;1.98;;;1.00;;
25707;SDS011;13567;61.652;17.100;2022-07-29T00:18:30;0.85;;;0.60;;
25707;SDS011;13567;61.652;17.100;2022-07-29T00:20:58;1.30;;;0.80;;
25707;SDS011;13567;61.652;17.100;2022-07-29T00:23:25;3.00;;;0.77;;
25707;SDS011;13567;61.652;17.100;2022-07-29T00:25:52;0.70;;;0.52;;
25707;SDS011;13567;61.652;17.100;2022-07-29T00:28:19;2.58;;;0.80;;
25707;SDS011;13567;61.652;17.100;2022-07-29T00:30:45;1.38;;;0.60;;
25707;SDS011;13567;61.652;17.100;2022-07-29T00:33:12;2.72;;;0.80;;
25707;SDS011;13567;61.652;17.100;2022-07-29T00:35:39;0.75;;;0.60;;
25707;SDS011;13567;61.652;17.100;2022-07-29T00:38:13;0.95;;;0.70;;
25707;SDS011;13567;61.652;17.100;2022-07-29T00:40:41;0.77;;;0.60;;
25707;SDS011;13567;61.652;17.100;2022-07-29T00:43:09;1.92;;;0.93;;
25707;SDS011;13567;61.652;17.100;2022-07-29T00:45:37;2.83;;;0.70;;
25707;SDS011;13567;61.652;17.100;2022-07-29T00:48:05;2.45;;;0.60;;
25707;SDS011;13567;61.652;17.100;2022-07-29T00:50:32;2.75;;;0.80;;
25707;SDS011;13567;61.652;17.100;2022-07-29T00:53:00;0.68;;;0.68;;
25707;SDS011;13567;61.652;17.100;2022-07-29T00:55:28;1.00;;;0.70;;
25707;SDS011;13567;61.652;17.100;2022-07-29T00:57:55;1.42;;;0.73;;
25707;SDS011;13567;61.652;17.100;2022-07-29T01:00:25;1.65;;;0.70;;
25707;SDS011;13567;61.652;17.100;2022-07-29T01:02:53;0.95;;;0.52;;
25707;SDS011;13567;61.652;17.100;2022-07-29T01:05:21;1.00;;;0.60;;
25707;SDS011;13567;61.652;17.100;2022-07-29T01:08:10;2.25;;;0.70;;
25707;SDS011;13567;61.652;17.100;2022-07-29T01:10:39;2.08;;;0.65;;
25707;SDS011;13567;61.652;17.100;2022-07-29T01:13:08;1.55;;;1.00;;
25707;SDS011;13567;61.652;17.100;2022-07-29T01:15:55;3.10;;;0.70;;
25707;SDS011;13567;61.652;17.100;2022-07-29T01:18:30;1.33;;;0.70;;
25707;SDS011;13567;61.652;17.100;2022-07-29T01:26:34;1.30;;;0.85;;
25707;SDS011;13567;61.652;17.100;2022-07-29T01:32:05;3.33;;;0.70;;
25707;SDS011;13567;61.652;17.100;2022-07-29T01:37:48;1.38;;;0.60;;
25707;SDS011;13567;61.652;17.100;2022-07-29T01:40:31;2.22;;;0.70;;
25707;SDS011;13567;61.652;17.100;2022-07-29T01:43:23;2.92;;;0.60;;
25707;SDS011;13567;61.652;17.100;2022-07-29T01:45:58;0.80;;;0.70;;
25707;SDS011;13567;61.652;17.100;2022-07-29T01:51:05;2.25;;;0.88;;
25707;SDS011;13567;61.652;17.100;2022-07-29T01:53:50;1.38;;;0.70;;
25707;SDS011;13567;61.652;17.100;2022-07-29T01:56:37;2.15;;;0.95;;
25707;SDS011;13567;61.652;17.100;2022-07-29T01:59:06;1.30;;;0.80;;
25707;SDS011;13567;61.652;17.100;2022-07-29T02:01:35;2.85;;;0.90;;
25707;SDS011;13567;61.652;17.100;2022-07-29T02:04:03;1.27;;;0.82;;
25707;SDS011;13567;61.652;17.100;2022-07-29T02:06:33;1.53;;;0.80;;
25707;SDS011;13567;61.652;17.100;2022-07-29T02:09:03;1.10;;;0.75;;
25707;SDS011;13567;61.652;17.100;2022-07-29T02:11:33;1.45;;;0.85;;
25707;SDS011;13567;61.652;17.100;2022-07-29T02:14:03;1.45;;;0.70;;
25707;SDS011;13567;61.652;17.100;2022-07-29T02:16:32;0.82;;;0.60;;
25707;SDS011;13567;61.652;17.100;2022-07-29T02:19:02;1.33;;;1.00;;
25707;SDS011;13567;61.652;17.100;2022-07-29T02:21:30;1.15;;;0.73;;
25707;SDS011;13567;61.652;17.100;2022-07-29T02:24:00;1.25;;;0.80;;
25707;SDS011;13567;61.652;17.100;2022-07-29T02:26:28;4.63;;;1.00;;
25707;SDS011;13567;61.652;17.100;2022-07-29T02:28:58;1.58;;;0.90;;
25707;SDS011;13567;61.652;17.100;2022-07-29T02:31:29;2.78;;;0.77;;
25707;SDS011;13567;61.652;17.100;2022-07-29T02:33:59;0.77;;;0.70;;
25707;SDS011;13567;61.652;17.100;2022-07-29T02:36:29;1.08;;;0.80;;
25707;SDS011;13567;61.652;17.100;2022-07-29T02:38:58;2.33;;;0.93;;
25707;SDS011;13567;61.652;17.100;2022-07-29T02:41:40;2.35;;;0.95;;
25707;SDS011;13567;61.652;17.100;2022-07-29T02:44:14;3.08;;;1.40;;
25707;SDS011;13567;61.652;17.100;2022-07-29T02:46:57;1.17;;;0.70;;
25707;SDS011;13567;61.652;17.100;2022-07-29T02:52:23;1.60;;;0.90;;
25707;SDS011;13567;61.652;17.100;2022-07-29T02:55:00;3.35;;;1.20;;
25707;SDS011;13567;61.652;17.100;2022-07-29T02:57:37;1.25;;;0.70;;
25707;SDS011;13567;61.652;17.100;2022-07-29T03:00:21;2.00;;;1.00;;
25707;SDS011;13567;61.652;17.100;2022-07-29T03:02:50;1.42;;;0.90;;
25707;SDS011;13567;61.652;17.100;2022-07-29T03:05:20;1.25;;;0.80;;
25707;SDS011;13567;61.652;17.100;2022-07-29T03:07:52;2.20;;;0.90;;
25707;SDS011;13567;61.652;17.100;2022-07-29T03:10:23;3.72;;;0.80;;
25707;SDS011;13567;61.652;17.100;2022-07-29T03:12:52;2.35;;;0.90;;
25707;SDS011;13567;61.652;17.100;2022-07-29T03:15:20;1.23;;;0.80;;
25707;SDS011;13567;61.652;17.100;2022-07-29T03:17:50;2.22;;;0.98;;
25707;SDS011;13567;61.652;17.100;2022-07-29T03:20:18;0.85;;;0.70;;
25707;SDS011;13567;61.652;17.100;2022-07-29T03:22:45;2.60;;;1.00;;
25707;SDS011;13567;61.652;17.100;2022-07-29T03:25:16;2.95;;;1.00;;
25707;SDS011;13567;61.652;17.100;2022-07-29T03:27:44;1.13;;;0.80;;
25707;SDS011;13567;61.652;17.100;2022-07-29T03:30:12;1.75;;;0.80;;
25707;SDS011;13567;61.652;17.100;2022-07-29T03:32:47;1.40;;;0.80;;
25707;SDS011;13567;61.652;17.100;2022-07-29T03:35:18;2.53;;;1.10;;
25707;SDS011;13567;61.652;17.100;2022-07-29T03:37:46;1.52;;;0.70;;
25707;SDS011;13567;61.652;17.100;2022-07-29T03:40:14;3.83;;;0.95;;
25707;SDS011;13567;61.652;17.100;2022-07-29T03:42:52;1.58;;;0.60;;
25707;SDS011;13567;61.652;17.100;2022-07-29T03:45:21;0.98;;;0.70;;
25707;SDS011;13567;61.652;17.100;2022-07-29T03:47:50;2.45;;;1.00;;
25707;SDS011;13567;61.652;17.100;2022-07-29T03:50:26;1.85;;;0.90;;
25707;SDS011;13567;61.652;17.100;2022-07-29T03:52:56;1.70;;;0.80;;
25707;SDS011;13567;61.652;17.100;2022-07-29T03:55:24;1.90;;;0.88;;
25707;SDS011;13567;61.652;17.100;2022-07-29T03:57:54;1.27;;;0.85;;
25707;SDS011;13567;61.652;17.100;2022-07-29T04:00:26;2.45;;;0.77;;
25707;SDS011;13567;61.652;17.100;2022-07-29T04:02:54;3.20;;;0.80;;
25707;SDS011;13567;61.652;17.100;2022-07-29T04:05:20;1.17;;;0.90;;
25707;SDS011;13567;61.652;17.100;2022-07-29T04:07:47;1.63;;;0.80;;
25707;SDS011;13567;61.652;17.100;2022-07-29T04:10:15;1.85;;;0.80;;
25707;SDS011;13567;61.652;17.100;2022-07-29T04:12:55;2.08;;;0.90;;
25707;SDS011;13567;61.652;17.100;2022-07-29T04:15:22;1.05;;;0.75;;
25707;SDS011;13567;61.652;17.100;2022-07-29T04:17:49;1.90;;;0.70;;
25707;SDS011;13567;61.652;17.100;2022-07-29T04:20:16;1.75;;;0.68;;
25707;SDS011;13567;61.652;17.100;2022-07-29T04:22:43;2.80;;;1.00;;
25707;SDS011;13567;61.652;17.100;2022-07-29T04:25:10;2.78;;;0.73;;
25707;SDS011;13567;61.652;17.100;2022-07-29T04:27:37;1.40;;;0.80;;
25707;SDS011;13567;61.652;17.100;2022-07-29T04:30:24;0.70;;;0.60;;
25707;SDS011;13567;61.652;17.100;2022-07-29T04:32:51;1.17;;;0.80;;
25707;SDS011;13567;61.652;17.100;2022-07-29T04:35:18;0.98;;;0.70;;
25707;SDS011;13567;61.652;17.100;2022-07-29T04:37:46;1.88;;;0.75;;
25707;SDS011;13567;61.652;17.100;2022-07-29T04:40:13;1.52;;;0.80;;
25707;SDS011;13567;61.652;17.100;2022-07-29T04:42:40;4.43;;;0.80;;
25707;SDS011;13567;61.652;17.100;2022-07-29T04:45:13;1.27;;;0.82;;
25707;SDS011;13567;61.652;17.100;2022-07-29T04:47:41;1.05;;;0.60;;
25707;SDS011;13567;61.652;17.100;2022-07-29T04:50:08;2.78;;;0.90;;
25707;SDS011;13567;61.652;17.100;2022-07-29T04:52:35;1.60;;;0.80;;
25707;SDS011;13567;61.652;17.100;2022-07-29T04:55:03;1.52;;;0.70;;
25707;SDS011;13567;61.652;17.100;2022-07-29T04:57:31;1.20;;;0.70;;
25707;SDS011;13567;61.652;17.100;2022-07-29T04:59:58;4.25;;;1.00;;
25707;SDS011;13567;61.652;17.100;2022-07-29T05:02:26;2.60;;;1.00;;
25707;SDS011;13567;61.652;17.100;2022-07-29T05:04:53;4.15;;;0.80;;
25707;SDS011;13567;61.652;17.100;2022-07-29T05:07:20;0.90;;;0.75;;
25707;SDS011;13567;61.652;17.100;2022-07-29T05:09:47;1.02;;;0.75;;
25707;SDS011;13567;61.652;17.100;2022-07-29T05:12:14;0.75;;;0.60;;
25707;SDS011;13567;61.652;17.100;2022-07-29T05:14:41;4.95;;;0.90;;
25707;SDS011;13567;61.652;17.100;2022-07-29T05:17:07;1.27;;;0.70;;
25707;SDS011;13567;61.652;17.100;2022-07-29T05:19:34;0.90;;;0.70;;
25707;SDS011;13567;61.652;17.100;2022-07-29T05:22:05;0.82;;;0.55;;
25707;SDS011;13567;61.652;17.100;2022-07-29T05:24:32;2.05;;;0.80;;
25707;SDS011;13567;61.652;17.100;2022-07-29T05:26:58;1.75;;;0.90;;
25707;SDS011;13567;61.652;17.100;2022-07-29T05:29:25;1.23;;;0.73;;
25707;SDS011;13567;61.652;17.100;2022-07-29T05:32:10;2.63;;;0.68;;
25707;SDS011;13567;61.652;17.100;2022-07-29T05:34:38;1.15;;;0.80;;
25707;SDS011;13567;61.652;17.100;2022-07-29T05:37:17;2.22;;;0.85;;
25707;SDS011;13567;61.652;17.100;2022-07-29T05:39:47;2.42;;;0.80;;
25707;SDS011;13567;61.652;17.100;2022-07-29T05:42:22;0.93;;;0.60;;
25707;SDS011;13567;61.652;17.100;2022-07-29T05:44:50;1.63;;;0.60;;
25707;SDS011;13567;61.652;17.100;2022-07-29T05:47:17;2.78;;;0.90;;
25707;SDS011;13567;61.652;17.100;2022-07-29T05:49:44;0.60;;;0.60;;
25707;SDS011;13567;61.652;17.100;2022-07-29T05:52:12;1.48;;;0.70;;
25707;SDS011;13567;61.652;17.100;2022-07-29T05:54:39;1.88;;;0.80;;
25707;SDS011;13567;61.652;17.100;2022-07-29T05:57:06;0.88;;;0.52;;
25707;SDS011;13567;61.652;17.100;2022-07-29T05:59:36;0.63;;;0.60;;
25707;SDS011;13567;61.652;17.100;2022-07-29T06:02:04;4.00;;;0.68;;
25707;SDS011;13567;61.652;17.100;2022-07-29T06:04:31;1.83;;;0.63;;
25707;SDS011;13567;61.652;17.100;2022-07-29T06:06:59;1.48;;;0.77;;
25707;SDS011;13567;61.652;17.100;2022-07-29T06:09:28;1.45;;;0.70;;
25707;SDS011;13567;61.652;17.100;2022-07-29T06:11:55;0.88;;;0.60;;
25707;SDS011;13567;61.652;17.100;2022-07-29T06:14:22;1.15;;;0.80;;
25707;SDS011;13567;61.652;17.100;2022-07-29T06:16:49;0.70;;;0.50;;
25707;SDS011;13567;61.652;17.100;2022-07-29T06:19:16;1.65;;;0.70;;
25707;SDS011;13567;61.652;17.100;2022-07-29T06:21:43;3.97;;;0.73;;
25707;SDS011;13567;61.652;17.100;2022-07-29T06:24:13;3.88;;;0.70;;
25707;SDS011;13567;61.652;17.100;2022-07-29T06:26:41;1.10;;;0.50;;
25707;SDS011;13567;61.652;17.100;2022-07-29T06:29:09;1.13;;;0.60;;
25707;SDS011;13567;61.652;17.100;2022-07-29T06:31:39;4.63;;;1.20;;
25707;SDS011;13567;61.652;17.100;2022-07-29T06:34:06;4.63;;;1.60;;
25707;SDS011;13567;61.652;17.100;2022-07-29T06:36:34;1.70;;;0.82;;
25707;SDS011;13567;61.652;17.100;2022-07-29T06:39:05;2.47;;;0.70;;
25707;SDS011;13567;61.652;17.100;2022-07-29T06:41:33;1.27;;;0.57;;
25707;SDS011;13567;61.652;17.100;2022-07-29T06:44:00;0.50;;;0.43;;
25707;SDS011;13567;61.652;17.100;2022-07-29T06:46:27;11.23;;;3.25;;
25707;SDS011;13567;61.652;17.100;2022-07-29T06:48:55;6.70;;;1.80;;
25707;SDS011;13567;61.652;17.100;2022-07-29T06:51:22;1.33;;;0.60;;
25707;SDS011;13567;61.652;17.100;2022-07-29T06:53:52;0.57;;;0.45;;
25707;SDS011;13567;61.652;17.100;2022-07-29T06:56:32;2.00;;;0.50;;
25707;SDS011;13567;61.652;17.100;2022-07-29T06:59:05;0.65;;;0.47;;
25707;SDS011;13567;61.652;17.100;2022-07-29T07:01:34;0.82;;;0.40;;
25707;SDS011;13567;61.652;17.100;2022-07-29T07:04:03;1.33;;;0.50;;
25707;SDS011;13567;61.652;17.100;2022-07-29T07:06:30;2.70;;;0.57;;
25707;SDS011;13567;61.652;17.100;2022-07-29T07:08:57;1.02;;;0.50;;
25707;SDS011;13567;61.652;17.100;2022-07-29T07:11:24;0.80;;;0.50;;
25707;SDS011;13567;61.652;17.100;2022-07-29T07:13:51;0.55;;;0.50;;
25707;SDS011;13567;61.652;17.100;2022-07-29T07:16:18;0.75;;;0.47;;
25707;SDS011;13567;61.652;17.100;2022-07-29T07:18:45;0.47;;;0.45;;
25707;SDS011;13567;61.652;17.100;2022-07-29T07:21:12;1.02;;;0.50;;
25707;SDS011;13567;61.652;17.100;2022-07-29T07:23:44;0.75;;;0.40;;
25707;SDS011;13567;61.652;17.100;2022-07-29T07:26:12;0.82;;;0.50;;
25707;SDS011;13567;61.652;17.100;2022-07-29T07:28:39;1.67;;;0.50;;
25707;SDS011;13567;61.652;17.100;2022-07-29T07:31:06;2.17;;;0.40;;
25707;SDS011;13567;61.652;17.100;2022-07-29T07:33:33;0.68;;;0.50;;
25707;SDS011;13567;61.652;17.100;2022-07-29T07:35:59;0.63;;;0.30;;
25707;SDS011;13567;61.652;17.100;2022-07-29T07:38:26;0.52;;;0.40;;
25707;SDS011;13567;61.652;17.100;2022-07-29T07:40:53;3.00;;;0.30;;
25707;SDS011;13567;61.652;17.100;2022-07-29T07:43:20;0.30;;;0.30;;
25707;SDS011;13567;61.652;17.100;2022-07-29T07:45:48;1.48;;;0.40;;
25707;SDS011;13567;61.652;17.100;2022-07-29T07:48:15;2.35;;;0.50;;
25707;SDS011;13567;61.652;17.100;2022-07-29T07:50:42;0.40;;;0.30;;
25707;SDS011;13567;61.652;17.100;2022-07-29T07:53:10;2.35;;;0.47;;
25707;SDS011;13567;61.652;17.100;2022-07-29T07:55:40;2.25;;;0.32;;
25707;SDS011;13567;61.652;17.100;2022-07-29T07:58:28;0.40;;;0.40;;
25707;SDS011;13567;61.652;17.100;2022-07-29T08:00:55;0.40;;;0.38;;
25707;SDS011;13567;61.652;17.100;2022-07-29T08:03:22;0.40;;;0.38;;
25707;SDS011;13567;61.652;17.100;2022-07-29T08:05:49;0.88;;;0.47;;
25707;SDS011;13567;61.652;17.100;2022-07-29T08:08:18;0.80;;;0.38;;
25707;SDS011;13567;61.652;17.100;2022-07-29T08:10:45;1.33;;;0.30;;
25707;SDS011;13567;61.652;17.100;2022-07-29T08:13:19;0.90;;;0.28;;
25707;SDS011;13567;61.652;17.100;2022-07-29T08:15:47;0.40;;;0.40;;
25707;SDS011;13567;61.652;17.100;2022-07-29T08:18:24;1.05;;;0.50;;
25707;SDS011;13567;61.652;17.100;2022-07-29T08:20:51;0.98;;;0.30;;
25707;SDS011;13567;61.652;17.100;2022-07-29T08:23:18;1.67;;;0.30;;
25707;SDS011;13567;61.652;17.100;2022-07-29T08:25:46;2.08;;;0.30;;
25707;SDS011;13567;61.652;17.100;2022-07-29T08:28:16;2.60;;;0.43;;
25707;SDS011;13567;61.652;17.100;2022-07-29T08:30:43;0.50;;;0.35;;
25707;SDS011;13567;61.652;17.100;2022-07-29T08:33:10;1.42;;;0.35;;
25707;SDS011;13567;61.652;17.100;2022-07-29T08:35:38;0.20;;;0.20;;
25707;SDS011;13567;61.652;17.100;2022-07-29T08:38:05;1.63;;;0.38;;
25707;SDS011;13567;61.652;17.100;2022-07-29T08:40:32;0.25;;;0.20;;
25707;SDS011;13567;61.652;17.100;2022-07-29T08:43:08;0.50;;;0.20;;
25707;SDS011;13567;61.652;17.100;2022-07-29T08:45:45;0.40;;;0.25;;
25707;SDS011;13567;61.652;17.100;2022-07-29T08:48:15;0.98;;;0.30;;
25707;SDS011;13567;61.652;17.100;2022-07-29T08:50:44;2.15;;;0.30;;
25707;SDS011;13567;61.652;17.100;2022-07-29T08:53:16;2.53;;;0.20;;
25707;SDS011;13567;61.652;17.100;2022-07-29T08:55:45;0.30;;;0.20;;
25707;SDS011;13567;61.652;17.100;2022-07-29T08:58:14;1.13;;;0.20;;
25707;SDS011;13567;61.652;17.100;2022-07-29T09:00:45;2.00;;;0.30;;
25707;SDS011;13567;61.652;17.100;2022-07-29T09:03:20;0.70;;;0.15;;
25707;SDS011;13567;61.652;17.100;2022-07-29T09:05:49;0.35;;;0.20;;
25707;SDS011;13567;61.652;17.100;2022-07-29T09:08:17;1.13;;;0.40;;
25707;SDS011;13567;61.652;17.100;2022-07-29T09:10:44;0.22;;;0.20;;
25707;SDS011;13567;61.652;17.100;2022-07-29T09:13:12;1.00;;;0.28;;
25707;SDS011;13567;61.652;17.100;2022-07-29T09:15:39;0.28;;;0.10;;
25707;SDS011;13567;61.652;17.100;2022-07-29T09:18:06;0.63;;;0.30;;
25707;SDS011;13567;61.652;17.100;2022-07-29T09:20:53;0.35;;;0.20;;
25707;SDS011;13567;61.652;17.100;2022-07-29T09:23:38;0.98;;;0.20;;
25707;SDS011;13567;61.652;17.100;2022-07-29T09:26:07;0.55;;;0.10;;
25707;SDS011;13567;61.652;17.100;2022-07-29T09:28:34;0.75;;;0.30;;
25707;SDS011;13567;61.652;17.100;2022-07-29T09:31:08;1.02;;;0.30;;
25707;SDS011;13567;61.652;17.100;2022-07-29T09:33:35;0.68;;;0.25;;
25707;SDS011;13567;61.652;17.100;2022-07-29T09:36:03;0.47;;;0.17;;
25707;SDS011;13567;61.652;17.100;2022-07-29T09:38:32;0.22;;;0.10;;
25707;SDS011;13567;61.652;17.100;2022-07-29T09:41:00;0.30;;;0.20;;
25707;SDS011;13567;61.652;17.100;2022-07-29T09:43:31;1.00;;;0.40;;
25707;SDS011;13567;61.652;17.100;2022-07-29T09:46:12;0.38;;;0.10;;
25707;SDS011;13567;61.652;17.100;2022-07-29T09:48:40;0.47;;;0.20;;
25707;SDS011;13567;61.652;17.100;2022-07-29T09:51:19;1.33;;;0.40;;
25707;SDS011;13567;61.652;17.100;2022-07-29T09:54:21;2.60;;;0.60;;
25707;SDS011;13567;61.652;17.100;2022-07-29T09:56:50;1.27;;;0.45;;
25707;SDS011;13567;61.652;17.100;2022-07-29T09:59:17;0.25;;;0.20;;
25707;SDS011;13567;61.652;17.100;2022-07-29T10:01:46;0.60;;;0.30;;
25707;SDS011;13567;61.652;17.100;2022-07-29T10:04:15;0.65;;;0.40;;
25707;SDS011;13567;61.652;17.100;2022-07-29T10:06:58;1.55;;;0.38;;
25707;SDS011;13567;61.652;17.100;2022-07-29T10:09:30;0.40;;;0.25;;
25707;SDS011;13567;61.652;17.100;2022-07-29T10:12:05;0.95;;;0.30;;
25707;SDS011;13567;61.652;17.100;2022-07-29T10:14:33;1.15;;;0.57;;
25707;SDS011;13567;61.652;17.100;2022-07-29T10:17:00;2.03;;;0.32;;
25707;SDS011;13567;61.652;17.100;2022-07-29T10:19:28;1.40;;;0.50;;
25707;SDS011;13567;61.652;17.100;2022-07-29T10:22:00;0.43;;;0.30;;
25707;SDS011;13567;61.652;17.100;2022-07-29T10:24:30;1.63;;;0.40;;
25707;SDS011;13567;61.652;17.100;2022-07-29T10:26:58;1.65;;;0.30;;
25707;SDS011;13567;61.652;17.100;2022-07-29T10:29:27;1.70;;;0.47;;
25707;SDS011;13567;61.652;17.100;2022-07-29T10:40:11;1.05;;;0.50;;
25707;SDS011;13567;61.652;17.100;2022-07-29T10:43:18;0.60;;;0.35;;
25707;SDS011;13567;61.652;17.100;2022-07-29T10:45:54;0.38;;;0.28;;
25707;SDS011;13567;61.652;17.100;2022-07-29T10:48:23;0.68;;;0.32;;
25707;SDS011;13567;61.652;17.100;2022-07-29T10:50:57;3.30;;;0.38;;
25707;SDS011;13567;61.652;17.100;2022-07-29T10:53:50;1.98;;;0.50;;
25707;SDS011;13567;61.652;17.100;2022-07-29T10:56:28;1.75;;;0.32;;
25707;SDS011;13567;61.652;17.100;2022-07-29T11:01:49;1.50;;;0.40;;
25707;SDS011;13567;61.652;17.100;2022-07-29T11:07:10;2.15;;;0.40;;
25707;SDS011;13567;61.652;17.100;2022-07-29T11:09:40;0.57;;;0.28;;
25707;SDS011;13567;61.652;17.100;2022-07-29T11:15:05;2.05;;;0.50;;
25707;SDS011;13567;61.652;17.100;2022-07-29T11:23:33;1.00;;;0.45;;
25707;SDS011;13567;61.652;17.100;2022-07-29T11:34:17;0.77;;;0.25;;
25707;SDS011;13567;61.652;17.100;2022-07-29T11:39:43;0.40;;;0.32;;
25707;SDS011;13567;61.652;17.100;2022-07-29T11:45:03;0.40;;;0.30;;
25707;SDS011;13567;61.652;17.100;2022-07-29T11:47:56;1.42;;;0.52;;
25707;SDS011;13567;61.652;17.100;2022-07-29T11:50:45;0.20;;;0.20;;
25707;SDS011;13567;61.652;17.100;2022-07-29T11:53:13;0.95;;;0.50;;
25707;SDS011;13567;61.652;17.100;2022-07-29T11:55:41;1.48;;;0.60;;
25707;SDS011;13567;61.652;17.100;2022-07-29T11:58:20;1.27;;;0.70;;
25707;SDS011;13567;61.652;17.100;2022-07-29T12:01:12;1.13;;;0.60;;
25707;SDS011;13567;61.652;17.100;2022-07-29T12:03:40;1.95;;;0.68;;
25707;SDS011;13567;61.652;17.100;2022-07-29T12:06:13;0.80;;;0.50;;
25707;SDS011;13567;61.652;17.100;2022-07-29T12:08:43;2.38;;;0.80;;
25707;SDS011;13567;61.652;17.100;2022-07-29T12:11:17;1.98;;;0.70;;
25707;SDS011;13567;61.652;17.100;2022-07-29T12:13:49;2.28;;;0.75;;
25707;SDS011;13567;61.652;17.100;2022-07-29T12:16:17;1.65;;;0.60;;
25707;SDS011;13567;61.652;17.100;2022-07-29T12:18:58;1.48;;;0.80;;
25707;SDS011;13567;61.652;17.100;2022-07-29T12:21:28;0.82;;;0.40;;
25707;SDS011;13567;61.652;17.100;2022-07-29T12:24:21;0.90;;;0.47;;
25707;SDS011;13567;61.652;17.100;2022-07-29T12:26:59;1.58;;;0.77;;
25707;SDS011;13567;61.652;17.100;2022-07-29T12:29:27;1.05;;;0.57;;
25707;SDS011;13567;61.652;17.100;2022-07-29T12:32:00;1.77;;;0.68;;
25707;SDS011;13567;61.652;17.100;2022-07-29T12:34:30;2.40;;;0.60;;
25707;SDS011;13567;61.652;17.100;2022-07-29T12:36:57;1.05;;;0.60;;
25707;SDS011;13567;61.652;17.100;2022-07-29T12:39:24;1.77;;;0.68;;
25707;SDS011;13567;61.652;17.100;2022-07-29T12:41:54;0.70;;;0.40;;
25707;SDS011;13567;61.652;17.100;2022-07-29T12:44:46;1.42;;;0.70;;
25707;SDS011;13567;61.652;17.100;2022-07-29T12:47:14;0.95;;;0.65;;
25707;SDS011;13567;61.652;17.100;2022-07-29T12:49:42;1.20;;;0.50;;
25707;SDS011;13567;61.652;17.100;2022-07-29T12:54:55;1.58;;;0.60;;
25707;SDS011;13567;61.652;17.100;2022-07-29T12:57:22;1.42;;;0.80;;
25707;SDS011;13567;61.652;17.100;2022-07-29T13:02:39;0.70;;;0.60;;
25707;SDS011;13567;61.652;17.100;2022-07-29T13:05:08;1.08;;;0.60;;
25707;SDS011;13567;61.652;17.100;2022-07-29T13:07:36;2.40;;;1.00;;
25707;SDS011;13567;61.652;17.100;2022-07-29T13:10:23;5.25;;;1.05;;
25707;SDS011;13567;61.652;17.100;2022-07-29T13:13:04;2.65;;;0.75;;
25707;SDS011;13567;61.652;17.100;2022-07-29T13:15:32;0.73;;;0.50;;
25707;SDS011;13567;61.652;17.100;2022-07-29T13:17:59;1.17;;;0.55;;
25707;SDS011;13567;61.652;17.100;2022-07-29T13:20:27;0.85;;;0.50;;
25707;SDS011;13567;61.652;17.100;2022-07-29T13:23:01;2.42;;;0.57;;
25707;SDS011;13567;61.652;17.100;2022-07-29T13:25:28;0.82;;;0.60;;
25707;SDS011;13567;61.652;17.100;2022-07-29T13:27:58;1.30;;;0.63;;
25707;SDS011;13567;61.652;17.100;2022-07-29T13:30:26;2.75;;;0.80;;
25707;SDS011;13567;61.652;17.100;2022-07-29T13:32:53;1.67;;;0.60;;
25707;SDS011;13567;61.652;17.100;2022-07-29T13:35:21;1.00;;;0.52;;
25707;SDS011;13567;61.652;17.100;2022-07-29T13:37:48;1.90;;;0.63;;
25707;SDS011;13567;61.652;17.100;2022-07-29T13:40:17;1.10;;;0.63;;
25707;SDS011;13567;61.652;17.100;2022-07-29T13:42:44;1.40;;;0.70;;
25707;SDS011;13567;61.652;17.100;2022-07-29T13:45:12;3.58;;;0.80;;
25707;SDS011;13567;61.652;17.100;2022-07-29T13:47:39;1.15;;;0.70;;
25707;SDS011;13567;61.652;17.100;2022-07-29T13:50:14;2.60;;;0.70;;
25707;SDS011;13567;61.652;17.100;2022-07-29T13:52:41;0.60;;;0.50;;
25707;SDS011;13567;61.652;17.100;2022-07-29T13:55:08;2.53;;;0.70;;
25707;SDS011;13567;61.652;17.100;2022-07-29T13:57:35;2.00;;;0.60;;
25707;SDS011;13567;61.652;17.100;2022-07-29T14:00:02;1.00;;;0.70;;
25707;SDS011;13567;61.652;17.100;2022-07-29T14:02:29;1.65;;;0.70;;
25707;SDS011;13567;61.652;17.100;2022-07-29T14:04:57;0.73;;;0.43;;
25707;SDS011;13567;61.652;17.100;2022-07-29T14:07:24;0.57;;;0.40;;
25707;SDS011;13567;61.652;17.100;2022-07-29T14:09:51;2.05;;;0.50;;
25707;SDS011;13567;61.652;17.100;2022-07-29T14:12:18;1.05;;;0.43;;
25707;SDS011;13567;61.652;17.100;2022-07-29T14:14:45;0.47;;;0.47;;
25707;SDS011;13567;61.652;17.100;2022-07-29T14:17:12;0.88;;;0.50;;
25707;SDS011;13567;61.652;17.100;2022-07-29T14:19:40;1.80;;;0.80;;
25707;SDS011;13567;61.652;17.100;2022-07-29T14:22:08;2.22;;;0.80;;
25707;SDS011;13567;61.652;17.100;2022-07-29T14:24:36;0.73;;;0.50;;
25707;SDS011;13567;61.652;17.100;2022-07-29T14:27:04;0.52;;;0.40;;
25707;SDS011;13567;61.652;17.100;2022-07-29T14:29:32;0.47;;;0.40;;
25707;SDS011;13567;61.652;17.100;2022-07-29T14:32:03;1.20;;;0.50;;
25707;SDS011;13567;61.652;17.100;2022-07-29T14:34:34;0.60;;;0.40;;
25707;SDS011;13567;61.652;17.100;2022-07-29T14:37:03;0.88;;;0.40;;
25707;SDS011;13567;61.652;17.100;2022-07-29T14:39:41;0.30;;;0.30;;
25707;SDS011;13567;61.652;17.100;2022-07-29T14:42:09;2.42;;;0.50;;
25707;SDS011;13567;61.652;17.100;2022-07-29T14:44:38;0.43;;;0.35;;
25707;SDS011;13567;61.652;17.100;2022-07-29T14:47:07;0.60;;;0.40;;
25707;SDS011;13567;61.652;17.100;2022-07-29T14:49:34;0.60;;;0.40;;
25707;SDS011;13567;61.652;17.100;2022-07-29T14:52:02;1.33;;;0.40;;
25707;SDS011;13567;61.652;17.100;2022-07-29T14:54:29;1.05;;;0.47;;
25707;SDS011;13567;61.652;17.100;2022-07-29T14:56:56;2.47;;;0.73;;
25707;SDS011;13567;61.652;17.100;2022-07-29T14:59:24;1.23;;;0.55;;
25707;SDS011;13567;61.652;17.100;2022-07-29T15:01:51;0.93;;;0.40;;
25707;SDS011;13567;61.652;17.100;2022-07-29T15:04:19;1.20;;;0.30;;
25707;SDS011;13567;61.652;17.100;2022-07-29T15:06:46;1.50;;;0.57;;
25707;SDS011;13567;61.652;17.100;2022-07-29T15:09:13;1.67;;;0.40;;
25707;SDS011;13567;61.652;17.100;2022-07-29T15:11:40;0.63;;;0.40;;
25707;SDS011;13567;61.652;17.100;2022-07-29T15:14:07;3.40;;;0.65;;
25707;SDS011;13567;61.652;17.100;2022-07-29T15:16:38;0.65;;;0.40;;
25707;SDS011;13567;61.652;17.100;2022-07-29T15:19:13;0.95;;;0.50;;
25707;SDS011;13567;61.652;17.100;2022-07-29T15:21:40;1.40;;;0.40;;
25707;SDS011;13567;61.652;17.100;2022-07-29T15:24:25;0.75;;;0.28;;
25707;SDS011;13567;61.652;17.100;2022-07-29T15:26:53;0.50;;;0.30;;
25707;SDS011;13567;61.652;17.100;2022-07-29T15:29:20;1.45;;;0.52;;
25707;SDS011;13567;61.652;17.100;2022-07-29T15:31:47;1.15;;;0.40;;
25707;SDS011;13567;61.652;17.100;2022-07-29T15:34:14;0.38;;;0.38;;
25707;SDS011;13567;61.652;17.100;2022-07-29T15:36:41;0.88;;;0.38;;
25707;SDS011;13567;61.652;17.100;2022-07-29T15:39:18;0.40;;;0.40;;
25707;SDS011;13567;61.652;17.100;2022-07-29T15:41:46;0.52;;;0.30;;
25707;SDS011;13567;61.652;17.100;2022-07-29T15:44:13;1.50;;;0.50;;
25707;SDS011;13567;61.652;17.100;2022-07-29T15:46:40;0.40;;;0.30;;
25707;SDS011;13567;61.652;17.100;2022-07-29T15:49:26;0.82;;;0.30;;
25707;SDS011;13567;61.652;17.100;2022-07-29T15:52:15;1.20;;;0.40;;